Time;durP1;ratioP1;P1;durP2;ratioP2;P2;SDS_P1;SDS_P2;PMS_P1;PMS_P2;Temp;Humidity;BMP_temperature;BMP_pressure;BME280_temperature;BME280_humidity;BME280_pressure;Samples;Min_cycle;Max_cycle;Signal;HPM_P1;HPM_P2
2022/05/27 00:01:32;;;;;;;21.75;12.90;;;;;;;22.09;58.82;99775.44;5017165;28;20057;-75
2022/05/27 00:04:00;;;;;;;19.88;11.95;;;;;;;21.75;60.06;99772.97;5032765;28;20373;-75
2022/05/27 00:06:27;;;;;;;18.77;11.70;;;;;;;21.69;60.24;99772.56;5029663;28;20174;-75
2022/05/27 00:08:52;;;;;;;22.02;13.90;;;;;;;21.23;61.88;99776.91;5013186;28;20038;-75
2022/05/27 00:11:18;;;;;;;19.35;12.73;;;;;;;21.48;61.24;99770.47;5006976;28;20034;-75
2022/05/27 00:13:44;;;;;;;16.67;12.52;;;;;;;21.40;61.58;99758.25;4998663;28;20034;-75
2022/05/27 00:16:11;;;;;;;23.17;13.55;;;;;;;21.50;61.37;99768.03;5017489;28;20491;-75
2022/05/27 00:18:37;;;;;;;26.17;14.68;;;;;;;21.25;62.36;99759.44;5011615;28;20029;-75
2022/05/27 00:21:03;;;;;;;24.92;13.27;;;;;;;21.36;62.20;99763.13;5012969;28;20116;-75
2022/05/27 00:23:30;;;;;;;19.40;13.18;;;;;;;21.38;62.33;99771.25;5011867;28;20041;-75
2022/05/27 00:25:55;;;;;;;30.17;14.65;;;;;;;21.57;61.43;99753.81;5010622;28;20040;-75
2022/05/27 00:28:21;;;;;;;23.88;14.10;;;;;;;21.71;61.20;99770.13;5012643;28;20033;-75
2022/05/27 00:30:46;;;;;;;17.42;12.13;;;;;;;21.71;60.89;99750.19;5016296;28;20021;-75
2022/05/27 00:33:12;;;;;;;24.90;13.65;;;;;;;21.87;60.42;99751.84;5032351;28;20033;-75
2022/05/27 00:35:38;;;;;;;19.25;13.68;;;;;;;21.68;61.44;99753.84;5032385;28;20407;-75
2022/05/27 00:38:05;;;;;;;23.30;12.93;;;;;;;21.65;61.64;99757.50;5022651;28;20040;-75
2022/05/27 00:40:37;;;;;;;18.00;13.07;;;;;;;21.54;61.89;99756.66;5011344;28;20113;-75
2022/05/27 00:43:02;;;;;;;16.00;12.38;;;;;;;21.53;61.40;99761.50;5010879;28;20030;-74
2022/05/27 00:45:28;;;;;;;14.05;11.52;;;;;;;21.73;60.51;99761.19;5011191;28;20026;-75
2022/05/27 00:47:57;;;;;;;16.25;11.93;;;;;;;22.00;59.59;99755.09;5012099;28;20108;-75
2022/05/27 00:50:30;;;;;;;17.83;12.85;;;;;;;22.12;59.11;99757.53;5010922;28;20026;-75
2022/05/27 00:52:56;;;;;;;16.50;12.60;;;;;;;21.96;59.33;99765.69;5011069;28;20026;-75
2022/05/27 00:55:27;;;;;;;18.17;11.65;;;;;;;21.99;58.84;99759.16;5012258;28;20029;-75
2022/05/27 00:58:33;;;;;;;22.23;12.30;;;;;;;22.01;58.91;99760.38;5011668;28;20033;-75
2022/05/27 01:01:00;;;;;;;18.45;12.55;;;;;;;22.01;58.55;99762.41;5011903;28;20033;-75
2022/05/27 01:03:27;;;;;;;30.85;14.23;;;;;;;21.73;59.47;99759.16;5012231;28;20064;-75
2022/05/27 01:05:53;;;;;;;23.27;13.80;;;;;;;21.56;59.74;99759.91;4999569;28;20042;-74
2022/05/27 01:08:22;;;;;;;27.35;13.18;;;;;;;21.66;59.25;99761.13;5031601;28;20170;-75
2022/05/27 01:11:04;;;;;;;27.75;12.43;;;;;;;21.43;59.85;99757.44;5022202;28;20032;-75
2022/05/27 01:13:57;;;;;;;16.60;11.73;;;;;;;21.41;59.58;99754.19;5019787;28;20025;-75
2022/05/27 01:16:52;;;;;;;25.58;12.27;;;;;;;21.53;59.42;99755.03;5008311;28;20451;-75
2022/05/27 01:23:04;;;;;;;15.75;10.63;;;;;;;21.62;58.90;99746.91;5021931;28;20397;-75
2022/05/27 01:25:45;;;;;;;16.67;10.93;;;;;;;21.72;58.44;99740.47;5000716;28;20045;-75
2022/05/27 01:28:41;;;;;;;15.80;10.55;;;;;;;22.05;57.52;99751.84;5011306;28;20048;-75
2022/05/27 01:31:36;;;;;;;14.40;10.98;;;;;;;22.04;57.50;99746.56;5010718;28;20049;-75
2022/05/27 01:34:24;;;;;;;16.75;10.30;;;;;;;21.93;57.57;99735.19;5009481;28;20025;-74
2022/05/27 01:37:10;;;;;;;14.85;10.57;;;;;;;21.91;57.68;99752.66;5023894;28;20026;-75
2022/05/27 01:40:06;;;;;;;23.50;13.65;;;;;;;21.76;57.99;99751.03;5031540;28;20034;-74
2022/05/27 01:42:45;;;;;;;17.63;11.60;;;;;;;21.70;58.35;99754.25;5031552;28;20021;-75
2022/05/27 01:45:21;;;;;;;17.42;10.85;;;;;;;21.59;58.65;99757.06;5015364;28;20022;-75
2022/05/27 01:48:01;;;;;;;18.45;12.07;;;;;;;21.47;59.21;99746.06;5025830;28;20037;-75
2022/05/27 01:50:42;;;;;;;20.13;13.32;;;;;;;21.29;60.27;99746.03;5014579;28;20056;-75
2022/05/27 01:53:23;;;;;;;20.85;13.30;;;;;;;21.11;60.99;99748.81;5031546;28;20678;-75
2022/05/27 01:55:55;;;;;;;20.90;12.20;;;;;;;21.23;61.02;99748.44;5029846;28;20025;-75
2022/05/27 01:58:33;;;;;;;23.05;12.63;;;;;;;21.27;60.99;99745.63;5028980;28;20057;-75
2022/05/27 02:00:59;;;;;;;19.38;12.73;;;;;;;21.38;60.72;99757.84;5015569;28;20539;-75
2022/05/27 02:03:33;;;;;;;23.50;13.70;;;;;;;21.20;61.28;99748.44;5013360;28;20026;-75
2022/05/27 02:06:03;;;;;;;17.48;13.43;;;;;;;21.18;60.80;99746.00;5011579;28;20165;-75
2022/05/27 02:08:38;;;;;;;19.70;13.63;;;;;;;21.17;60.50;99744.34;5011511;28;20042;-75
2022/05/27 02:11:15;;;;;;;19.45;13.80;;;;;;;21.32;60.17;99751.72;5009137;28;20034;-75
2022/05/27 02:14:04;;;;;;;17.58;12.35;;;;;;;21.62;59.11;99755.47;4991759;28;20081;-75
2022/05/27 02:16:37;;;;;;;24.15;12.88;;;;;;;21.32;59.89;99757.44;5014650;28;20475;-75
2022/05/27 02:19:20;;;;;;;14.80;12.13;;;;;;;21.48;59.11;99735.50;5029694;28;20044;-75
2022/05/27 02:22:15;;;;;;;25.27;13.02;;;;;;;21.46;59.60;99765.16;5007417;28;20049;-75
2022/05/27 02:25:02;;;;;;;18.17;12.15;;;;;;;21.29;59.91;99760.25;4991286;28;20045;-75
2022/05/27 02:27:35;;;;;;;15.68;11.30;;;;;;;21.50;59.38;99756.63;4990535;28;20037;-75
2022/05/27 02:30:06;;;;;;;22.48;12.60;;;;;;;21.59;58.85;99764.78;4995430;28;20109;-75
2022/05/27 02:32:37;;;;;;;29.00;12.50;;;;;;;21.71;58.60;99767.28;5017812;28;20091;-75
2022/05/27 02:35:20;;;;;;;35.25;14.02;;;;;;;21.51;59.11;99761.09;5027912;28;20035;-75
2022/05/27 02:37:55;;;;;;;21.75;11.48;;;;;;;21.17;59.28;99761.41;5011296;28;20029;-75
2022/05/27 02:40:26;;;;;;;18.33;13.63;;;;;;;21.01;59.86;99765.44;5012966;28;20484;-74
2022/05/27 02:43:10;;;;;;;20.83;12.50;;;;;;;21.01;59.92;99765.44;5013685;28;20465;-75
2022/05/27 02:45:44;;;;;;;18.70;11.95;;;;;;;21.03;60.08;99767.88;5007114;28;20033;-75
2022/05/27 02:48:26;;;;;;;25.92;12.55;;;;;;;20.92;60.29;99767.00;5034275;28;20083;-75
2022/05/27 02:51:22;;;;;;;18.23;13.38;;;;;;;20.42;61.83;99769.13;5033038;28;20074;-75
2022/05/27 02:54:15;;;;;;;20.38;12.15;;;;;;;20.26;62.54;99777.13;5033758;28;20055;-74
2022/05/27 02:56:48;;;;;;;44.88;17.30;;;;;;;20.23;62.90;99772.25;4997748;28;20030;-74
2022/05/27 02:59:17;;;;;;;23.90;12.52;;;;;;;20.39;62.39;99771.94;4994803;28;20043;-74
2022/05/27 03:01:45;;;;;;;23.58;13.23;;;;;;;20.51;61.99;99782.97;5012643;28;20053;-75
2022/05/27 03:04:10;;;;;;;22.95;13.20;;;;;;;20.76;61.06;99768.13;5014070;28;20064;-75
2022/05/27 03:07:16;;;;;;;25.80;13.13;;;;;;;20.95;60.47;99777.59;5014379;28;20455;-74
2022/05/27 03:09:54;;;;;;;21.75;11.90;;;;;;;21.14;60.00;99765.91;5013664;28;20040;-75
2022/05/27 03:12:34;;;;;;;27.02;13.85;;;;;;;21.27;59.68;99777.72;5014274;28;20038;-75
2022/05/27 03:15:12;;;;;;;21.60;13.63;;;;;;;21.24;59.92;99774.88;5012742;28;20061;-75
2022/05/27 03:18:03;;;;;;;25.90;13.27;;;;;;;21.42;59.50;99772.88;5015056;28;20472;-75
2022/05/27 03:20:48;;;;;;;25.42;12.98;;;;;;;21.40;59.45;99775.31;5018586;28;20037;-75
2022/05/27 03:23:13;;;;;;;21.45;12.68;;;;;;;21.07;60.17;99774.38;5013845;28;20407;-75
2022/05/27 03:26:00;;;;;;;19.70;12.13;;;;;;;20.95;60.47;99783.28;5012579;28;20018;-73
2022/05/27 03:28:50;;;;;;;24.75;13.32;;;;;;;20.35;62.73;99777.63;5011830;28;20022;-77
2022/05/27 03:31:34;;;;;;;26.52;14.13;;;;;;;20.43;62.39;99775.63;5014620;28;20030;-74
2022/05/27 03:34:11;;;;;;;32.35;14.63;;;;;;;20.40;62.73;99777.22;4998026;28;20029;-75
2022/05/27 03:36:51;;;;;;;24.80;15.07;;;;;;;20.37;62.82;99774.38;4994338;28;20030;-74
2022/05/27 03:39:31;;;;;;;25.67;14.65;;;;;;;20.13;64.16;99779.47;4994081;28;20084;-74
2022/05/27 03:42:03;;;;;;;27.77;14.95;;;;;;;20.16;63.99;99773.81;5006301;28;20050;-74
2022/05/27 03:44:29;;;;;;;21.55;13.00;;;;;;;19.75;65.51;99777.47;5002013;28;20053;-74
2022/05/27 03:46:57;;;;;;;19.63;13.52;;;;;;;19.75;65.68;99774.66;4993041;28;20117;-74
2022/05/27 03:49:24;;;;;;;22.52;13.07;;;;;;;19.64;65.98;99776.56;5003308;28;20061;-74
2022/05/27 03:51:49;;;;;;;18.88;11.90;;;;;;;19.64;66.42;99782.22;5012632;28;20030;-74
2022/05/27 03:54:15;;;;;;;30.23;14.70;;;;;;;19.86;65.55;99777.59;5013358;28;20037;-74
2022/05/27 03:56:42;;;;;;;23.88;13.80;;;;;;;20.02;65.13;99777.34;5011205;28;20030;-74
2022/05/27 03:59:12;;;;;;;28.33;14.13;;;;;;;20.16;64.69;99778.69;5015936;28;20084;-74
2022/05/27 04:01:41;;;;;;;25.42;13.30;;;;;;;20.06;65.30;99786.72;5022625;28;20073;-74
2022/05/27 04:04:09;;;;;;;28.37;14.60;;;;;;;19.62;67.58;99781.81;4993571;28;20477;-73
2022/05/27 04:06:34;;;;;;;28.15;16.17;;;;;;;19.36;68.46;99777.91;4993528;28;20018;-74
2022/05/27 04:09:00;;;;;;;22.00;14.82;;;;;;;19.61;68.05;99786.69;4993542;28;20025;-74
2022/05/27 04:11:30;;;;;;;20.25;13.68;;;;;;;19.61;68.27;99781.00;5004154;28;20022;-74
2022/05/27 04:13:56;;;;;;;25.80;13.80;;;;;;;19.64;68.11;99779.41;4997942;28;20450;-74
2022/05/27 04:16:23;;;;;;;21.38;14.82;;;;;;;19.75;67.84;99773.84;5032604;28;20055;-74
2022/05/27 04:18:48;;;;;;;24.02;15.20;;;;;;;19.89;67.42;99776.81;5032589;28;20021;-74
2022/05/27 04:21:14;;;;;;;27.95;14.20;;;;;;;20.08;66.41;99779.84;5031247;28;20030;-74
2022/05/27 04:23:40;;;;;;;19.17;13.30;;;;;;;20.29;64.94;99768.66;5031030;28;20022;-74
2022/05/27 04:26:06;;;;;;;19.70;12.02;;;;;;;20.40;63.70;99771.56;5018764;28;20168;-74
2022/05/27 04:28:33;;;;;;;21.25;12.23;;;;;;;20.56;62.77;99774.09;5011712;28;20022;-74
2022/05/27 04:30:59;;;;;;;22.40;11.65;;;;;;;20.71;61.92;99766.47;5031171;28;20022;-74
2022/05/27 04:33:27;;;;;;;24.67;12.27;;;;;;;20.80;61.66;99768.13;5026530;28;20047;-75
2022/05/27 04:35:53;;;;;;;21.40;12.57;;;;;;;20.88;61.81;99767.00;4992720;28;20468;-74
2022/05/27 04:38:18;;;;;;;17.83;11.13;;;;;;;21.03;61.13;99770.72;4993010;28;20026;-74
2022/05/27 04:40:44;;;;;;;21.92;12.27;;;;;;;21.12;60.81;99765.50;5013947;28;20168;-74
2022/05/27 04:43:09;;;;;;;22.77;12.35;;;;;;;21.20;61.41;99774.84;5009671;28;20030;-74
2022/05/27 04:45:35;;;;;;;28.13;12.88;;;;;;;21.23;61.36;99765.50;5013717;28;20117;-74
2022/05/27 04:48:00;;;;;;;26.42;12.75;;;;;;;21.02;63.36;99754.88;5012253;28;20018;-74
2022/05/27 04:50:27;;;;;;;26.00;14.38;;;;;;;20.94;63.13;99759.72;5012438;28;20021;-74
2022/05/27 04:52:53;;;;;;;42.63;14.68;;;;;;;21.11;63.37;99763.03;5012331;28;20022;-74
2022/05/27 04:55:19;;;;;;;26.55;13.38;;;;;;;21.20;62.85;99763.47;5012295;28;20543;-74
2022/05/27 04:57:54;;;;;;;18.77;14.13;;;;;;;21.10;63.67;99759.38;5008590;28;20388;-78
2022/05/27 05:00:38;;;;;;;20.77;12.88;;;;;;;21.37;62.94;99761.09;5005989;28;20065;-74
2022/05/27 05:03:04;;;;;;;38.95;14.15;;;;;;;21.28;62.21;99764.31;5006136;28;20124;-74
2022/05/27 05:05:32;;;;;;;19.30;13.35;;;;;;;21.20;62.29;99765.50;5011963;28;20026;-74
2022/05/27 05:08:02;;;;;;;26.25;14.77;;;;;;;21.20;63.67;99772.00;5012098;28;20473;-74
2022/05/27 05:10:29;;;;;;;30.05;14.63;;;;;;;21.36;64.02;99774.50;5026039;28;20044;-74
2022/05/27 05:12:56;;;;;;;23.90;12.55;;;;;;;21.51;62.74;99769.66;5021742;28;20092;-74
2022/05/27 05:15:22;;;;;;;20.48;12.48;;;;;;;21.69;62.00;99758.31;5025567;28;20036;-74
2022/05/27 05:17:48;;;;;;;24.45;14.55;;;;;;;21.80;61.29;99763.22;5010474;28;20026;-74
2022/05/27 05:20:18;;;;;;;16.42;12.90;;;;;;;21.89;61.40;99763.66;5009792;28;20482;-74
2022/05/27 05:22:44;;;;;;;23.90;13.77;;;;;;;22.04;58.97;99766.50;5018215;28;20495;-75
2022/05/27 05:25:11;;;;;;;24.52;12.50;;;;;;;22.21;58.61;99762.00;5023039;28;20120;-74
2022/05/27 05:27:38;;;;;;;29.55;13.18;;;;;;;22.25;59.37;99766.50;5022432;28;20038;-75
2022/05/27 05:30:06;;;;;;;19.27;13.07;;;;;;;22.53;59.68;99764.84;5022441;28;20049;-74
2022/05/27 05:32:32;;;;;;;18.30;12.15;;;;;;;22.67;58.97;99763.19;5031189;28;20102;-75
2022/05/27 05:34:59;;;;;;;35.92;15.70;;;;;;;22.54;59.85;99757.91;5031524;28;20108;-74
2022/05/27 05:37:25;;;;;;;29.13;13.90;;;;;;;22.72;59.54;99762.78;5031557;28;20021;-75
2022/05/27 05:39:51;;;;;;;28.63;15.05;;;;;;;22.72;58.86;99754.22;5016305;28;20068;-74
2022/05/27 05:42:16;;;;;;;19.73;14.10;;;;;;;23.00;58.75;99756.16;5010300;28;20061;-74
2022/05/27 05:44:42;;;;;;;20.98;14.52;;;;;;;22.93;57.90;99747.63;5015075;28;20523;-74
2022/05/27 05:47:07;;;;;;;20.27;14.15;;;;;;;23.09;57.97;99747.16;4991877;28;20061;-74
2022/05/27 05:49:33;;;;;;;20.67;12.93;;;;;;;23.04;56.04;99753.28;4999087;28;20492;-74
2022/05/27 05:52:00;;;;;;;37.10;13.45;;;;;;;22.94;57.17;99745.59;5008825;28;20037;-74
2022/05/27 05:54:27;;;;;;;21.35;12.05;;;;;;;23.19;57.08;99756.09;5011533;28;20030;-74
2022/05/27 05:56:53;;;;;;;26.50;12.55;;;;;;;23.30;56.97;99756.03;5010102;28;20523;-75
2022/05/27 05:59:21;;;;;;;18.50;12.32;;;;;;;23.26;56.23;99756.03;5026346;28;20052;-74
2022/05/27 06:01:47;;;;;;;19.67;11.43;;;;;;;23.23;55.28;99742.59;5013500;28;20096;-74
2022/05/27 06:04:13;;;;;;;25.02;10.90;;;;;;;23.27;54.28;99735.69;5011405;28;20058;-74
2022/05/27 06:06:38;;;;;;;18.10;11.25;;;;;;;23.32;55.17;99745.84;5010396;28;20029;-74
2022/05/27 06:09:05;;;;;;;26.88;12.95;;;;;;;23.26;54.93;99747.47;5012973;28;20052;-74
2022/05/27 06:11:31;;;;;;;30.05;10.40;;;;;;;23.53;53.88;99746.94;5010244;28;20045;-74
2022/05/27 06:13:56;;;;;;;21.83;10.98;;;;;;;23.68;52.79;99745.63;5013303;28;20034;-74
2022/05/27 06:16:22;;;;;;;27.00;11.15;;;;;;;23.80;53.71;99740.66;5014930;28;20018;-74
2022/05/27 06:18:49;;;;;;;18.77;10.70;;;;;;;23.69;52.56;99737.84;5015533;28;20018;-74
2022/05/27 06:21:15;;;;;;;31.35;11.32;;;;;;;23.79;51.81;99739.81;5012923;28;20034;-74
2022/05/27 06:23:40;;;;;;;14.27;10.13;;;;;;;24.11;52.40;99735.09;5008358;28;20022;-74
2022/05/27 06:26:08;;;;;;;24.60;9.50;;;;;;;24.15;50.43;99735.91;5011038;28;20045;-72
2022/05/27 06:36:48;;;;;;;15.75;7.60;;;;;;;24.32;48.33;99734.09;5012260;28;20055;-73
2022/05/27 06:39:14;;;;;;;16.08;8.50;;;;;;;24.72;47.41;99727.94;5042577;28;20495;-74
2022/05/27 06:41:40;;;;;;;11.55;8.63;;;;;;;24.71;47.45;99726.31;5017104;28;20029;-74
2022/05/27 06:44:06;;;;;;;16.05;9.05;;;;;;;24.66;48.11;99726.78;5007156;28;20053;-74
2022/05/27 06:46:33;;;;;;;21.98;9.05;;;;;;;24.75;47.83;99714.84;5004863;28;20038;-74
2022/05/27 06:48:59;;;;;;;12.65;8.23;;;;;;;25.07;47.71;99719.38;5012826;28;20037;-74
2022/05/27 06:51:25;;;;;;;14.15;8.35;;;;;;;25.41;47.42;99712.78;5021254;28;20093;-73
2022/05/27 06:53:51;;;;;;;14.60;8.98;;;;;;;25.67;45.91;99723.88;4996334;28;20731;-75
2022/05/27 06:56:17;;;;;;;11.43;8.40;;;;;;;25.87;45.54;99707.56;5008364;28;20033;-73
2022/05/27 06:58:43;;;;;;;15.00;8.30;;;;;;;25.81;45.79;99717.09;5012429;28;20128;-74
2022/05/27 07:01:10;;;;;;;19.73;9.65;;;;;;;25.79;45.91;99720.38;5015060;28;20021;-74
2022/05/27 07:03:37;;;;;;;14.50;8.73;;;;;;;25.82;46.45;99710.91;5020061;28;20056;-74
2022/05/27 07:06:13;;;;;;;17.77;9.23;;;;;;;26.02;45.16;99701.59;5000824;28;20030;-73
2022/05/27 07:08:40;;;;;;;21.02;9.20;;;;;;;26.19;45.77;99703.38;5010099;28;20085;-75
2022/05/27 07:11:05;;;;;;;13.95;7.85;;;;;;;25.91;44.17;99694.00;5006271;28;20033;-75
2022/05/27 07:13:31;;;;;;;9.82;6.93;;;;;;;26.18;43.39;99698.03;5027020;28;20473;-74
2022/05/27 07:15:57;;;;;;;19.92;6.80;;;;;;;26.45;42.64;99703.72;5010825;28;20034;-73
2022/05/27 07:18:23;;;;;;;23.13;6.68;;;;;;;26.53;42.28;99709.28;5013626;28;20030;-74
2022/05/27 07:20:49;;;;;;;12.38;6.47;;;;;;;26.56;41.00;99697.75;5016044;28;20032;-73
2022/05/27 07:23:15;;;;;;;20.88;6.20;;;;;;;26.28;41.52;99696.25;5033351;28;20038;-72
2022/05/27 07:25:42;;;;;;;14.95;6.35;;;;;;;26.01;42.20;99689.34;5022422;28;20061;-73
2022/05/27 07:28:08;;;;;;;12.23;5.28;;;;;;;26.53;41.01;99687.16;5024087;28;20037;-79
2022/05/27 07:30:35;;;;;;;9.65;5.88;;;;;;;26.48;40.39;99690.53;5011216;28;20029;-75
2022/05/27 07:33:01;;;;;;;8.30;4.93;;;;;;;26.76;40.87;99680.53;5020022;28;20502;-75
2022/05/27 07:35:27;;;;;;;15.55;5.55;;;;;;;27.00;39.80;99677.59;5003880;28;20053;-75
2022/05/27 07:37:53;;;;;;;7.68;4.40;;;;;;;27.06;37.77;99672.16;5016802;28;20025;-73
2022/05/27 07:40:19;;;;;;;15.45;4.85;;;;;;;27.22;39.14;99668.50;5013048;28;20518;-74
2022/05/27 07:42:45;;;;;;;16.05;4.68;;;;;;;27.55;37.52;99668.59;5005368;28;20038;-72
2022/05/27 07:45:13;;;;;;;13.07;4.32;;;;;;;27.49;36.43;99667.47;5012122;28;20037;-75
2022/05/27 07:47:39;;;;;;;7.88;4.40;;;;;;;27.54;38.05;99669.84;5003722;28;20038;-75
2022/05/27 07:50:06;;;;;;;9.32;4.45;;;;;;;27.40;38.74;99670.16;5020297;28;20042;-74
2022/05/27 07:52:34;;;;;;;8.65;4.20;;;;;;;27.37;37.21;99663.25;5009840;28;20492;-75
2022/05/27 07:55:00;;;;;;;10.23;4.03;;;;;;;27.32;36.59;99673.19;5006721;28;20033;-74
2022/05/27 07:57:27;;;;;;;8.10;3.92;;;;;;;27.11;36.38;99673.69;5008309;28;20038;-74
2022/05/27 07:59:55;;;;;;;9.18;3.22;;;;;;;27.09;35.81;99665.53;4997758;28;20026;-74
2022/05/27 08:02:22;;;;;;;7.28;3.50;;;;;;;26.99;34.90;99666.59;5023795;28;20522;-74
2022/05/27 08:04:47;;;;;;;12.60;3.28;;;;;;;27.25;35.61;99655.34;5012350;28;20025;-74
2022/05/27 08:07:13;;;;;;;5.65;3.13;;;;;;;27.59;35.42;99662.75;5010452;28;20029;-73
2022/05/27 08:09:39;;;;;;;13.90;3.92;;;;;;;27.68;35.15;99651.44;5013334;28;20044;-74
2022/05/27 08:12:06;;;;;;;7.18;3.75;;;;;;;27.56;34.61;99655.03;5012862;28;20021;-74
2022/05/27 08:14:31;;;;;;;13.68;4.55;;;;;;;27.64;35.12;99658.53;4997617;28;20035;-73
2022/05/27 08:16:57;;;;;;;12.05;4.10;;;;;;;27.63;35.79;99648.28;5008620;28;20030;-75
2022/05/27 08:19:23;;;;;;;6.72;3.75;;;;;;;27.65;35.94;99649.47;4996242;28;20101;-76
2022/05/27 08:21:48;;;;;;;7.50;3.95;;;;;;;27.72;36.22;99646.41;5001381;28;20028;-74
2022/05/27 08:24:14;;;;;;;7.28;4.10;;;;;;;28.10;35.80;99650.75;5030908;28;20029;-72
2022/05/27 08:26:39;;;;;;;11.18;4.38;;;;;;;28.41;36.36;99643.78;5013135;28;20022;-72
2022/05/27 08:29:07;;;;;;;4.88;3.65;;;;;;;28.53;35.71;99639.34;5012298;28;20044;-74
2022/05/27 08:31:32;;;;;;;10.05;3.88;;;;;;;28.72;34.94;99641.25;5012302;28;20037;-72
2022/05/27 08:39:26;;;;;;;13.65;3.80;;;;;;;28.57;34.40;99628.53;5006019;28;20040;-73
2022/05/27 08:42:10;;;;;;;10.93;4.00;;;;;;;28.64;33.69;99636.16;5007580;28;20034;-77
2022/05/27 08:44:38;;;;;;;10.93;3.92;;;;;;;28.95;34.20;99627.03;5007011;28;20043;-73
2022/05/27 08:47:19;;;;;;;14.50;3.67;;;;;;;29.04;33.01;99617.72;5023912;28;20112;-72
2022/05/27 08:49:48;;;;;;;6.82;3.30;;;;;;;29.08;33.29;99616.31;5015296;28;20036;-74
2022/05/27 08:52:33;;;;;;;5.50;3.25;;;;;;;28.65;32.21;99617.63;5007734;28;20053;-74
2022/05/27 08:55:04;;;;;;;9.93;3.60;;;;;;;28.99;32.23;99616.19;5009153;28;20101;-74
2022/05/27 09:00:26;;;;;;;8.65;3.85;;;;;;;28.65;32.49;99609.81;5004868;28;20591;-74
2022/05/27 09:03:03;;;;;;;5.68;3.47;;;;;;;29.26;32.51;99606.28;5007604;28;20053;-74
2022/05/27 09:05:42;;;;;;;14.32;3.80;;;;;;;29.22;32.68;99602.72;5010007;28;20492;-73
2022/05/27 09:08:21;;;;;;;8.50;3.60;;;;;;;29.09;32.21;99602.75;5004262;28;20034;-75
2022/05/27 09:11:07;;;;;;;8.85;4.00;;;;;;;29.30;31.64;99592.59;4994250;28;20026;-74
2022/05/27 09:13:56;;;;;;;9.23;4.05;;;;;;;29.33;31.96;99590.88;5032500;28;20112;-76
2022/05/27 09:16:24;;;;;;;5.73;3.83;;;;;;;29.13;31.97;99586.16;5002008;28;21357;-75
2022/05/27 09:19:12;;;;;;;8.77;3.67;;;;;;;29.12;32.48;99587.44;5001384;28;20105;-74
2022/05/27 09:21:47;;;;;;;8.50;3.63;;;;;;;29.26;32.00;99575.44;5001663;28;20026;-75
2022/05/27 09:24:30;;;;;;;12.73;3.85;;;;;;;29.65;30.59;99568.81;5000987;28;20487;-75
2022/05/27 09:27:07;;;;;;;7.70;3.17;;;;;;;29.94;29.88;99571.50;5000036;28;20026;-74
2022/05/27 09:29:51;;;;;;;11.00;4.05;;;;;;;30.00;29.86;99560.16;5023017;28;20041;-75
2022/05/27 09:32:25;;;;;;;9.38;4.15;;;;;;;30.22;28.72;99554.44;5013846;28;20037;-73
2022/05/27 09:34:55;;;;;;;7.95;4.28;;;;;;;30.58;29.51;99549.38;5015860;28;20045;-74
2022/05/27 09:37:26;;;;;;;12.00;3.92;;;;;;;30.79;28.87;99547.75;4996158;28;20044;-72
2022/05/27 09:39:55;;;;;;;9.13;3.97;;;;;;;30.81;28.79;99548.06;5002085;28;20116;-73
2022/05/27 09:42:31;;;;;;;6.93;3.27;;;;;;;30.84;28.00;99536.88;5007038;28;20030;-75
2022/05/27 09:44:58;;;;;;;6.32;3.10;;;;;;;30.95;28.42;99540.91;5007991;28;20472;-72
2022/05/27 09:47:29;;;;;;;10.75;4.55;;;;;;;31.30;28.26;99534.16;5013973;28;20413;-72
2022/05/27 09:50:09;;;;;;;7.93;3.40;;;;;;;31.17;27.85;99536.31;4994131;28;20026;-71
2022/05/27 09:52:40;;;;;;;8.48;3.58;;;;;;;30.36;28.53;99543.66;5010479;28;20090;-71
2022/05/27 09:55:34;;;;;;;9.13;4.30;;;;;;;30.24;28.03;99537.47;5006045;28;20424;-72
2022/05/27 09:58:05;;;;;;;9.52;4.82;;;;;;;30.39;27.69;99531.94;5012957;28;20030;-71
2022/05/27 10:00:35;;;;;;;7.93;3.22;;;;;;;30.15;28.21;99528.75;5003185;28;20127;-72
2022/05/27 10:03:19;;;;;;;7.00;3.50;;;;;;;30.58;27.68;99511.88;4995759;28;20056;-73
2022/05/27 10:05:57;;;;;;;8.55;3.50;;;;;;;31.14;27.40;99512.13;5002208;28;20046;-73
2022/05/27 10:08:53;;;;;;;15.70;4.93;;;;;;;31.30;26.53;99504.47;5006606;28;20037;-73
2022/05/27 10:11:28;;;;;;;11.90;3.40;;;;;;;31.46;26.30;99507.06;5008645;28;20038;-74
2022/05/27 10:14:06;;;;;;;7.90;3.58;;;;;;;31.77;26.61;99508.19;5046941;28;20034;-73
2022/05/27 10:16:33;;;;;;;6.15;4.07;;;;;;;31.29;26.71;99505.75;4999089;28;20041;-72
2022/05/27 10:19:23;;;;;;;7.63;4.00;;;;;;;31.34;27.04;99500.16;4995443;28;20026;-72
2022/05/27 10:21:55;;;;;;;13.15;4.35;;;;;;;31.12;27.43;99485.78;5005075;28;20117;-72
2022/05/27 10:24:42;;;;;;;15.23;4.47;;;;;;;31.13;27.53;99486.59;5003988;28;20040;-73
2022/05/27 10:27:31;;;;;;;10.50;4.30;;;;;;;31.35;26.67;99487.31;5004364;28;20037;-72
2022/05/27 10:30:06;;;;;;;8.35;3.55;;;;;;;31.68;26.27;99482.16;5013446;28;20053;-72
2022/05/27 10:32:44;;;;;;;8.05;3.95;;;;;;;31.87;25.77;99480.13;5013341;28;20033;-72
2022/05/27 10:35:15;;;;;;;8.15;3.92;;;;;;;31.98;25.71;99483.34;4994585;28;20029;-72
2022/05/27 10:38:12;;;;;;;8.63;3.25;;;;;;;32.02;26.26;99480.25;5004608;28;20041;-72
2022/05/27 10:40:46;;;;;;;20.20;5.93;;;;;;;32.04;26.48;99474.81;5020550;28;20034;-72
2022/05/27 10:43:27;;;;;;;7.88;3.78;;;;;;;31.91;27.14;99469.19;5006224;28;20029;-73
2022/05/27 10:45:54;;;;;;;7.55;3.50;;;;;;;31.83;25.86;99462.94;5011130;28;20126;-72
2022/05/27 10:48:53;;;;;;;23.77;4.65;;;;;;;31.94;25.51;99456.66;5012784;28;20095;-72
2022/05/27 10:51:49;;;;;;;8.77;3.43;;;;;;;32.20;25.93;99459.97;5009416;28;20033;-72
2022/05/27 10:54:33;;;;;;;8.60;3.53;;;;;;;32.45;26.38;99439.81;5003362;28;20034;-73
2022/05/27 11:03:22;;;;;;;9.13;4.25;;;;;;;32.13;25.57;99419.03;5011584;28;20061;-72
2022/05/27 11:06:25;;;;;;;25.63;4.95;;;;;;;32.34;25.26;99420.88;5012835;28;20033;-72
2022/05/27 11:09:17;;;;;;;5.97;3.65;;;;;;;32.43;26.17;99416.38;5004464;28;20030;-72
2022/05/27 11:12:01;;;;;;;13.65;3.55;;;;;;;32.86;25.37;99416.31;5004853;28;20030;-73
2022/05/27 11:17:48;;;;;;;6.72;3.75;;;;;;;32.73;25.65;99411.56;4998773;28;20044;-72
2022/05/27 11:20:43;;;;;;;11.40;3.80;;;;;;;33.09;25.33;99414.75;4996072;28;20456;-72
2022/05/27 11:23:14;;;;;;;7.18;3.28;;;;;;;33.16;24.76;99414.34;5057193;28;20486;-73
2022/05/27 11:25:49;;;;;;;6.45;3.50;;;;;;;33.19;24.43;99413.38;5007841;28;20365;-73
2022/05/27 11:28:23;;;;;;;10.05;4.72;;;;;;;33.05;24.50;99409.13;5008705;28;20049;-72
2022/05/27 11:31:13;;;;;;;15.07;3.90;;;;;;;32.93;25.33;99398.59;4999329;28;20168;-73
2022/05/27 11:33:49;;;;;;;5.63;3.13;;;;;;;33.28;25.30;99403.00;4997345;28;20030;-73
2022/05/27 11:36:33;;;;;;;9.52;3.95;;;;;;;33.35;24.31;99399.75;5007765;28;20053;-74
2022/05/27 11:39:20;;;;;;;7.85;3.63;;;;;;;33.15;24.78;99397.50;5008733;28;20072;-76
2022/05/27 11:41:55;;;;;;;7.28;3.67;;;;;;;32.75;24.99;99388.69;5011098;28;20559;-73
2022/05/27 11:44:23;;;;;;;16.98;4.88;;;;;;;32.86;25.85;99393.94;4994144;28;20042;-76
2022/05/27 11:46:55;;;;;;;7.47;3.25;;;;;;;32.86;25.28;99391.06;5018330;28;20108;-74
2022/05/27 11:49:46;;;;;;;11.15;4.05;;;;;;;32.66;25.09;99385.06;5010267;28;20045;-77
2022/05/27 11:52:32;;;;;;;14.45;4.07;;;;;;;32.42;25.88;99377.97;5035934;28;20063;-73
2022/05/27 11:55:43;;;;;;;14.38;4.10;;;;;;;32.57;25.41;99374.34;5008877;28;20112;-74
2022/05/27 11:58:28;;;;;;;12.55;3.83;;;;;;;32.43;25.49;99370.88;4997428;28;20113;-74
2022/05/27 12:01:01;;;;;;;12.43;3.72;;;;;;;32.50;26.07;99381.28;4998193;28;20045;-73
2022/05/27 12:03:32;;;;;;;24.73;5.13;;;;;;;32.71;26.27;99369.94;5005065;28;20497;-73
2022/05/27 12:06:25;;;;;;;11.15;3.53;;;;;;;32.41;25.89;99366.88;5003556;28;20707;-72
2022/05/27 12:09:00;;;;;;;23.05;5.68;;;;;;;32.69;25.84;99366.72;5002093;28;20104;-72
2022/05/27 12:11:39;;;;;;;16.75;4.07;;;;;;;32.81;25.44;99359.88;5008642;28;20038;-77
2022/05/27 12:14:13;;;;;;;16.38;3.50;;;;;;;32.45;26.37;99353.81;5008324;28;20041;-76
2022/05/27 12:16:43;;;;;;;18.52;4.78;;;;;;;32.53;26.81;99354.25;5010509;28;20107;-73
2022/05/27 12:19:14;;;;;;;;;;;;;;;32.41;25.94;99355.28;5018481;28;20053;-75